createdAt,value
2022-08-22T00:00:11.605Z,100551.88
2022-08-22T00:03:15.676Z,100505.44
2022-08-22T00:06:16.643Z,100542.75
2022-08-22T00:08:55.683Z,100544.91
2022-08-22T00:11:49.185Z,100539.94
2022-08-22T00:14:41.412Z,100541.38
2022-08-22T00:17:39.701Z,100550.88
2022-08-22T00:20:19.075Z,100551.59
2022-08-22T00:23:08.132Z,100543.38
2022-08-22T00:25:37.827Z,100542.41
2022-08-22T00:28:28.519Z,100539.94
2022-08-22T00:31:24.505Z,100452.13
2022-08-22T00:34:16.282Z,100545.19
2022-08-22T00:37:04.429Z,100523.00
2022-08-22T00:39:56.529Z,100543.91
2022-08-22T00:43:08.539Z,100551.34
2022-08-22T00:46:07.754Z,100475.88
2022-08-22T00:48:40.325Z,100508.59
2022-08-22T00:51:30.533Z,100405.44
2022-08-22T00:54:11.436Z,100561.19
2022-08-22T00:56:50.125Z,100567.34
2022-08-22T00:59:34.436Z,100526.31
2022-08-22T01:02:07.331Z,100535.69
2022-08-22T01:04:49.907Z,100545.28
2022-08-22T01:07:51.052Z,100556.63
2022-08-22T01:10:32.884Z,100515.00
2022-08-22T01:13:10.696Z,100553.75
2022-08-22T01:15:38.121Z,100451.44
2022-08-22T01:18:23.462Z,100538.53
2022-08-22T01:21:27.661Z,100531.56
2022-08-22T01:24:13.134Z,100529.47
2022-08-22T01:27:05.560Z,100521.16
2022-08-22T01:29:44.464Z,100503.28
2022-08-22T01:32:43.304Z,100540.97
2022-08-22T01:35:26.418Z,100397.00
2022-08-22T01:38:44.729Z,100530.69
2022-08-22T01:41:14.709Z,100538.47
2022-08-22T01:44:00.333Z,100529.59
2022-08-22T01:46:54.398Z,100529.16
2022-08-22T01:49:24.079Z,100527.16
2022-08-22T01:51:53.660Z,100514.97
2022-08-22T01:54:43.595Z,100525.09
2022-08-22T01:57:12.177Z,100520.59
2022-08-22T01:59:43.344Z,100523.56
2022-08-22T02:02:52.187Z,100520.72
2022-08-22T02:05:22.493Z,100524.63
2022-08-22T02:07:49.099Z,100470.84
2022-08-22T02:10:42.626Z,100461.28
2022-08-22T02:13:13.033Z,100445.25
2022-08-22T02:15:39.851Z,100521.31
2022-08-22T02:18:06.431Z,100457.97
2022-08-22T02:20:44.090Z,100522.63
2022-08-22T02:23:26.705Z,100520.41
2022-08-22T02:25:58.920Z,100526.75
2022-08-22T02:28:56.711Z,100523.78
2022-08-22T02:31:45.680Z,100519.13
2022-08-22T02:34:53.891Z,100488.59
2022-08-22T02:37:49.965Z,100508.09
2022-08-22T02:40:38.368Z,100513.44
2022-08-22T02:43:18.106Z,100482.78
2022-08-22T02:46:17.171Z,100514.66
2022-08-22T02:49:12.090Z,100516.03
2022-08-22T02:52:26.584Z,100523.00
2022-08-22T02:55:15.060Z,100468.88
2022-08-22T02:58:15.968Z,100531.88
2022-08-22T03:00:51.289Z,100525.25
2022-08-22T03:03:29.087Z,100531.88
2022-08-22T03:06:01.675Z,100542.28
2022-08-22T03:08:31.278Z,100551.47
2022-08-22T03:10:57.836Z,100542.88
2022-08-22T03:13:53.764Z,100467.56
2022-08-22T03:16:47.389Z,100530.59
2022-08-22T03:19:22.413Z,100457.50
2022-08-22T03:22:03.757Z,100543.41
2022-08-22T03:24:52.353Z,100533.50
2022-08-22T03:27:32.712Z,100537.59
2022-08-22T03:30:07.785Z,100536.28
2022-08-22T03:33:19.238Z,100531.28
2022-08-22T03:35:46.029Z,100526.09
2022-08-22T03:38:34.022Z,100464.44
2022-08-22T03:41:06.645Z,100531.13
2022-08-22T03:44:04.420Z,100531.97
2022-08-22T03:46:59.265Z,100466.28
2022-08-22T03:49:50.305Z,100478.59
2022-08-22T03:52:23.105Z,100464.09
2022-08-22T03:55:09.167Z,100537.03
2022-08-22T03:57:41.866Z,100494.41
2022-08-22T04:00:39.629Z,100545.75
2022-08-22T04:03:26.795Z,100533.34
2022-08-22T04:06:31.242Z,100551.78
2022-08-22T04:09:19.485Z,100495.25
2022-08-22T04:12:08.720Z,100551.53
2022-08-22T04:15:29.031Z,100537.47
2022-08-22T04:18:14.329Z,100495.69
2022-08-22T04:21:38.765Z,100479.94
2022-08-22T04:24:30.122Z,100547.03
2022-08-22T04:27:20.536Z,100548.47
2022-08-22T04:30:05.883Z,100544.34
2022-08-22T04:32:45.547Z,100530.38
2022-08-22T04:35:17.856Z,100545.84
2022-08-22T04:38:21.885Z,100553.13
2022-08-22T04:40:55.318Z,100499.22
2022-08-22T04:43:40.932Z,100544.75
2022-08-22T04:46:14.849Z,100530.25
2022-08-22T04:48:48.550Z,100530.25
2022-08-22T04:51:33.626Z,100507.06
2022-08-22T04:54:58.888Z,100546.72
2022-08-22T04:57:31.237Z,100551.19
2022-08-22T05:00:01.888Z,100540.47
2022-08-22T05:02:28.886Z,100509.25
2022-08-22T05:05:13.547Z,100493.69
2022-08-22T05:07:48.294Z,100473.88
2022-08-22T05:10:28.123Z,100554.03
2022-08-22T05:13:07.705Z,100556.06
2022-08-22T05:15:38.852Z,100559.19
2022-08-22T05:18:09.993Z,100555.19
2022-08-22T05:20:40.462Z,100566.94
2022-08-22T05:23:29.548Z,100571.06
2022-08-22T05:26:02.230Z,100537.47
2022-08-22T05:28:37.475Z,100498.91
2022-08-22T05:31:09.052Z,100507.19
2022-08-22T05:33:49.717Z,100576.03
2022-08-22T05:36:22.938Z,100542.94
2022-08-22T05:39:13.913Z,100576.09
2022-08-22T05:41:41.747Z,100559.44
2022-08-22T05:44:18.716Z,100573.41
2022-08-22T05:46:51.426Z,100529.00
2022-08-22T05:49:27.988Z,100509.09
2022-08-22T05:52:27.098Z,100556.81
2022-08-22T05:55:04.334Z,100559.53
2022-08-22T05:57:37.271Z,100546.28
2022-08-22T06:00:11.097Z,100574.72
2022-08-22T06:02:52.470Z,100569.19
2022-08-22T06:05:26.116Z,100564.81
2022-08-22T06:07:59.282Z,100449.69
2022-08-22T06:10:31.863Z,100574.44
2022-08-22T06:13:02.283Z,100572.19
2022-08-22T06:15:29.094Z,100572.78
2022-08-22T06:18:07.333Z,100574.81
2022-08-22T06:20:45.871Z,100570.56
2022-08-22T06:23:18.568Z,100577.66
2022-08-22T06:25:48.469Z,100586.06
2022-08-22T06:28:22.860Z,100578.59
2022-08-22T06:30:51.953Z,100571.03
2022-08-22T06:33:23.967Z,100536.28
2022-08-22T06:36:16.372Z,100488.75
2022-08-22T06:39:18.626Z,100597.63
2022-08-22T06:41:52.573Z,100603.78
2022-08-22T06:44:27.733Z,100561.00
2022-08-22T06:46:58.631Z,100571.50
2022-08-22T06:49:26.946Z,100587.94
2022-08-22T06:52:00.635Z,100566.69
2022-08-22T06:54:34.457Z,100592.81
2022-08-22T06:57:03.292Z,100598.25
2022-08-22T06:59:35.384Z,100600.34
2022-08-22T07:02:23.183Z,100597.38
2022-08-22T07:04:51.608Z,100599.03
2022-08-22T07:07:20.402Z,100600.69
2022-08-22T07:09:51.282Z,100556.34
2022-08-22T07:12:21.033Z,100597.84
2022-08-22T07:14:52.327Z,100589.91
2022-08-22T07:17:26.645Z,100603.78
2022-08-22T07:20:15.660Z,100605.78
2022-08-22T07:22:55.421Z,100585.69
2022-08-22T07:25:24.380Z,100602.22
2022-08-22T07:27:53.979Z,100595.75
2022-08-22T07:30:27.378Z,100601.28
2022-08-22T07:32:57.925Z,100571.88
2022-08-22T07:35:53.234Z,100573.63
2022-08-22T07:38:43.924Z,100515.28
2022-08-22T07:42:03.087Z,100578.13
2022-08-22T07:44:38.492Z,100483.34
2022-08-22T07:47:11.660Z,100569.97
2022-08-22T07:50:02.871Z,100555.31
2022-08-22T07:52:44.687Z,100585.34
2022-08-22T07:55:48.464Z,100585.47
2022-08-22T07:58:17.830Z,100573.16
2022-08-22T08:00:46.893Z,100585.78
2022-08-22T08:03:13.999Z,100599.75
2022-08-22T08:05:43.677Z,100595.13
2022-08-22T08:08:41.028Z,100509.91
2022-08-22T08:11:12.041Z,100592.97
2022-08-22T08:13:43.870Z,100500.09
2022-08-22T08:16:18.422Z,100587.84
2022-08-22T08:18:48.534Z,100588.31
2022-08-22T08:21:38.767Z,100587.75
2022-08-22T08:24:08.544Z,100576.44
2022-08-22T08:27:03.644Z,100598.84
2022-08-22T08:29:32.161Z,100602.00
2022-08-22T08:32:00.969Z,100586.16
2022-08-22T08:34:30.208Z,100520.59
2022-08-22T08:37:02.477Z,100576.31
2022-08-22T08:39:42.404Z,100590.22
2022-08-22T08:42:33.967Z,100542.94
2022-08-22T08:45:24.659Z,100593.75
2022-08-22T08:48:15.816Z,100597.97
2022-08-22T08:51:16.304Z,100587.16
2022-08-22T08:54:24.880Z,100595.25
2022-08-22T08:57:35.390Z,100589.19
2022-08-22T09:00:11.134Z,100531.19
2022-08-22T09:03:30.559Z,100583.22
2022-08-22T09:06:16.820Z,100581.31
2022-08-22T09:09:11.018Z,100478.34
2022-08-22T09:12:11.459Z,100547.09
2022-08-22T09:14:56.811Z,100584.66
2022-08-22T09:17:53.980Z,100577.28
2022-08-22T09:20:46.495Z,100571.25
2022-08-22T09:23:31.936Z,100573.03
2022-08-22T09:26:25.196Z,100552.91
2022-08-22T09:28:54.376Z,100575.81
2022-08-22T09:31:48.217Z,100569.84
2022-08-22T09:34:24.134Z,100552.69
2022-08-22T09:37:06.502Z,100563.16
2022-08-22T09:39:46.634Z,100562.69
2022-08-22T09:42:46.311Z,100509.00
2022-08-22T09:45:38.252Z,100556.72
2022-08-22T09:48:13.291Z,100561.22
2022-08-22T09:50:52.754Z,100556.72
2022-08-22T09:53:54.384Z,100555.03
2022-08-22T09:56:49.486Z,100567.06
2022-08-22T09:59:26.884Z,100563.88
2022-08-22T10:01:59.942Z,100554.31
2022-08-22T10:04:59.435Z,100530.72
2022-08-22T10:08:05.981Z,100553.91
2022-08-22T10:10:43.400Z,100554.78
2022-08-22T10:13:21.055Z,100550.44
2022-08-22T10:16:16.132Z,100538.50
2022-08-22T10:19:06.388Z,100527.94
2022-08-22T10:21:44.589Z,100538.09
2022-08-22T10:24:25.467Z,100477.56
2022-08-22T10:26:58.127Z,100533.31
2022-08-22T10:30:02.619Z,100537.47
2022-08-22T10:32:38.452Z,100532.94
2022-08-22T10:35:17.510Z,100534.84
2022-08-22T10:38:05.896Z,100472.34
2022-08-22T10:40:39.417Z,100520.38
2022-08-22T10:43:28.996Z,100507.81
2022-08-22T10:46:13.784Z,100519.84
2022-08-22T10:48:58.944Z,100506.09
2022-08-22T10:51:31.374Z,100517.00
2022-08-22T10:54:26.076Z,100518.09
2022-08-22T10:57:20.799Z,100509.81
2022-08-22T11:00:10.673Z,100510.72
2022-08-22T11:02:53.796Z,100492.00
2022-08-22T11:05:24.459Z,100507.28
2022-08-22T11:08:19.370Z,100508.88
2022-08-22T11:11:10.260Z,100507.53
2022-08-22T11:14:16.413Z,100505.41
2022-08-22T11:17:30.869Z,100497.63
2022-08-22T11:20:08.970Z,100494.34
2022-08-22T11:23:00.308Z,100491.88
2022-08-22T11:25:52.365Z,100508.34
2022-08-22T11:28:38.743Z,100496.91
2022-08-22T11:31:19.820Z,100417.97
2022-08-22T11:33:59.681Z,100484.91
2022-08-22T11:36:47.259Z,100427.38
2022-08-22T11:39:41.833Z,100480.41
2022-08-22T11:42:24.580Z,100467.56
2022-08-22T11:44:59.213Z,100467.09
2022-08-22T11:47:32.155Z,100424.66
2022-08-22T11:50:13.987Z,100477.00
2022-08-22T11:52:51.614Z,100466.56
2022-08-22T11:55:34.536Z,100464.66
2022-08-22T11:58:41.242Z,100462.72
2022-08-22T12:01:19.761Z,100440.38
2022-08-22T12:04:01.246Z,100446.34
2022-08-22T12:06:52.066Z,100429.81
2022-08-22T12:09:26.437Z,100472.31
2022-08-22T12:12:33.331Z,100461.94
2022-08-22T12:15:24.399Z,100449.28
2022-08-22T12:18:09.453Z,100416.44
2022-08-22T12:20:54.326Z,100460.47
2022-08-22T12:23:48.714Z,100462.34
2022-08-22T12:26:40.642Z,100457.78
2022-08-22T12:29:20.212Z,100446.00
2022-08-22T12:32:06.274Z,100455.94
2022-08-22T12:34:36.807Z,100353.22
2022-08-22T12:37:15.665Z,100448.09
2022-08-22T12:40:10.508Z,100447.50
2022-08-22T12:43:27.892Z,100443.34
2022-08-22T12:46:38.754Z,100443.25
2022-08-22T12:50:01.997Z,100436.97
2022-08-22T12:52:42.009Z,100441.09
2022-08-22T12:55:16.713Z,100443.66
2022-08-22T12:57:43.628Z,100443.00
2022-08-22T13:00:26.803Z,100439.41
2022-08-22T13:02:55.065Z,100426.94
2022-08-22T13:05:27.225Z,100420.81
2022-08-22T13:08:05.176Z,100371.38
2022-08-22T13:10:47.437Z,100422.22
2022-08-22T13:13:29.491Z,100424.84
2022-08-22T13:16:06.451Z,100404.44
2022-08-22T13:18:39.289Z,100421.50
2022-08-22T13:21:15.297Z,100417.97
2022-08-22T13:23:45.956Z,100417.41
2022-08-22T13:26:32.042Z,100414.13
2022-08-22T13:32:00.548Z,100397.78
2022-08-22T13:34:43.503Z,100408.75
2022-08-22T13:37:24.548Z,100385.72
2022-08-22T13:40:00.919Z,100395.00
2022-08-22T13:42:32.803Z,100413.66
2022-08-22T13:45:05.445Z,100402.72
2022-08-22T13:47:35.794Z,100402.72
2022-08-22T13:50:12.621Z,100398.34
2022-08-22T13:52:52.259Z,100350.63
2022-08-22T13:55:49.217Z,100391.91
2022-08-22T13:58:42.145Z,100397.13
2022-08-22T14:01:20.285Z,100388.94
2022-08-22T14:03:58.078Z,100384.31
2022-08-22T14:07:11.240Z,100390.88
2022-08-22T14:09:56.548Z,100372.56
2022-08-22T14:12:49.887Z,100375.81
2022-08-22T14:15:23.400Z,100364.88
2022-08-22T14:17:55.985Z,100380.47
2022-08-22T14:20:32.255Z,100324.81
2022-08-22T14:23:16.376Z,100375.31
2022-08-22T14:25:44.023Z,100366.72
2022-08-22T14:28:27.421Z,100353.19
2022-08-22T14:31:08.468Z,100320.94
2022-08-22T14:33:44.523Z,100369.94
2022-08-22T14:36:20.666Z,100364.66
2022-08-22T14:39:10.124Z,100374.66
2022-08-22T14:41:56.348Z,100367.50
2022-08-22T14:44:38.808Z,100366.81
2022-08-22T14:47:54.463Z,100343.28
2022-08-22T14:50:09.636Z,100367.13
2022-08-22T14:52:46.434Z,100371.19
2022-08-22T14:55:23.855Z,100376.03
2022-08-22T14:58:15.247Z,100366.28
2022-08-22T15:00:45.360Z,100350.97
2022-08-22T15:03:14.604Z,100365.47
2022-08-22T15:05:48.673Z,100330.81
2022-08-22T15:08:27.954Z,100367.09
2022-08-22T15:11:20.160Z,100344.66
2022-08-22T15:14:08.391Z,100347.97
2022-08-22T15:16:51.811Z,100312.88
2022-08-22T15:19:34.655Z,100353.66
2022-08-22T15:22:25.694Z,100337.53
2022-08-22T15:25:04.433Z,100353.66
2022-08-22T15:27:34.898Z,100351.81
2022-08-22T15:30:20.537Z,100346.81
2022-08-22T15:32:49.042Z,100328.63
2022-08-22T15:35:31.282Z,100343.72
2022-08-22T15:38:04.583Z,100291.50
2022-08-22T15:40:45.894Z,100344.66
2022-08-22T15:43:21.161Z,100346.22
2022-08-22T15:45:50.827Z,100345.59
2022-08-22T15:48:29.724Z,100270.91
2022-08-22T15:50:58.546Z,100332.34
2022-08-22T15:53:31.324Z,100346.16
2022-08-22T15:56:05.556Z,100337.06
2022-08-22T15:58:37.264Z,100344.13
2022-08-22T16:01:20.037Z,100322.34
2022-08-22T16:04:04.821Z,100340.69
2022-08-22T16:06:51.421Z,100314.13
2022-08-22T16:09:50.687Z,100324.06
2022-08-22T16:12:33.770Z,100332.44
2022-08-22T16:15:03.083Z,100318.00
2022-08-22T16:17:29.734Z,100329.63
2022-08-22T16:20:19.421Z,100316.66
2022-08-22T16:22:56.420Z,100325.16
2022-08-22T16:25:44.808Z,100329.44
2022-08-22T16:28:56.461Z,100321.22
2022-08-22T16:31:27.343Z,100331.13
2022-08-22T16:34:16.223Z,100310.38
2022-08-22T16:37:03.070Z,100342.22
2022-08-22T16:39:36.259Z,100338.25
2022-08-22T16:42:32.959Z,100334.56
2022-08-22T16:45:02.786Z,100336.75
2022-08-22T16:47:40.773Z,100295.47
2022-08-22T16:50:19.543Z,100337.91
2022-08-22T16:52:58.429Z,100334.50
2022-08-22T16:55:31.404Z,100335.84
2022-08-22T16:58:06.447Z,100298.00
2022-08-22T17:03:08.762Z,100339.84
2022-08-22T17:06:04.346Z,100335.69
2022-08-22T17:08:46.628Z,100341.09
2022-08-22T17:11:13.135Z,100307.69
2022-08-22T17:14:04.031Z,100326.28
2022-08-22T17:17:02.959Z,100354.22
2022-08-22T17:19:40.491Z,100363.13
2022-08-22T17:22:45.584Z,100367.50
2022-08-22T17:25:15.017Z,100360.47
2022-08-22T17:27:44.992Z,100368.81
2022-08-22T17:30:22.233Z,100378.06
2022-08-22T17:33:08.501Z,100386.06
2022-08-22T17:36:03.058Z,100377.00
2022-08-22T17:38:57.817Z,100369.03
2022-08-22T17:42:01.544Z,100323.06
2022-08-22T17:44:32.880Z,100327.41
2022-08-22T17:46:59.498Z,100391.53
2022-08-22T17:49:32.053Z,100361.41
2022-08-22T17:52:11.368Z,100392.66
2022-08-22T17:54:46.971Z,100392.41
2022-08-22T17:57:22.260Z,100390.44
2022-08-22T17:59:51.869Z,100343.88
2022-08-22T18:02:30.780Z,100384.66
2022-08-22T18:05:28.562Z,100395.16
2022-08-22T18:08:37.208Z,100394.22
2022-08-22T18:11:08.982Z,100324.38
2022-08-22T18:13:35.569Z,100336.53
2022-08-22T18:16:11.944Z,100400.63
2022-08-22T18:18:45.967Z,100397.19
2022-08-22T18:21:29.919Z,100394.78
2022-08-22T18:24:01.025Z,100395.09
2022-08-22T18:26:44.554Z,100403.81
2022-08-22T18:29:23.363Z,100412.31
2022-08-22T18:32:02.019Z,100352.88
2022-08-22T18:34:43.835Z,100421.34
2022-08-22T18:37:33.024Z,100321.38
2022-08-22T18:40:13.635Z,100429.50
2022-08-22T18:42:45.561Z,100374.31
2022-08-22T18:45:43.986Z,100435.53
2022-08-22T18:48:20.597Z,100419.66
2022-08-22T18:50:48.055Z,100438.31
2022-08-22T18:53:37.941Z,100435.56
2022-08-22T18:56:30.447Z,100440.47
2022-08-22T18:59:51.542Z,100441.03
2022-08-22T19:02:55.302Z,100448.13
2022-08-22T19:05:41.452Z,100445.94
2022-08-22T19:08:39.376Z,100447.63
2022-08-22T19:11:35.077Z,100387.28
2022-08-22T19:14:24.963Z,100467.72
2022-08-22T19:17:16.547Z,100465.25
2022-08-22T19:20:08.161Z,100442.34
2022-08-22T19:22:36.824Z,100464.47
2022-08-22T19:25:18.719Z,100467.69
2022-08-22T19:28:08.806Z,100470.50
2022-08-22T19:31:23.291Z,100458.16
2022-08-22T19:34:12.957Z,100456.56
2022-08-22T19:36:40.393Z,100461.41
2022-08-22T19:39:10.784Z,100483.44
2022-08-22T19:41:44.474Z,100456.94
2022-08-22T19:44:32.524Z,100489.56
2022-08-22T19:47:05.948Z,100495.31
2022-08-22T19:49:37.346Z,100487.56
2022-08-22T19:52:16.438Z,100491.19
2022-08-22T19:54:48.433Z,100494.41
2022-08-22T19:57:24.935Z,100469.78
2022-08-22T20:00:00.239Z,100495.34
2022-08-22T20:02:37.636Z,100502.91
2022-08-22T20:05:22.318Z,100470.81
2022-08-22T20:08:01.168Z,100510.09
2022-08-22T20:10:47.038Z,100498.81
2022-08-22T20:13:19.825Z,100516.25
2022-08-22T20:16:11.015Z,100509.28
2022-08-22T20:19:07.267Z,100462.13
2022-08-22T20:21:53.806Z,100510.81
2022-08-22T20:24:29.529Z,100518.94
2022-08-22T20:27:13.306Z,100519.94
2022-08-22T20:29:47.167Z,100525.22
2022-08-22T20:32:16.615Z,100498.34
2022-08-22T20:34:45.324Z,100510.81
2022-08-22T20:37:32.416Z,100523.78
2022-08-22T20:40:22.981Z,100527.81
2022-08-22T20:43:10.958Z,100530.41
2022-08-22T20:45:48.205Z,100520.16
2022-08-22T20:48:15.416Z,100506.41
2022-08-22T20:50:42.089Z,100533.00
2022-08-22T20:53:16.893Z,100530.78
2022-08-22T20:55:56.333Z,100528.34
2022-08-22T20:58:26.354Z,100526.88
2022-08-22T21:00:57.093Z,100533.41
2022-08-22T21:03:41.781Z,100532.63
2022-08-22T21:06:19.099Z,100472.81
2022-08-22T21:09:07.580Z,100514.56
2022-08-22T21:11:40.232Z,100520.78
2022-08-22T21:14:25.456Z,100543.91
2022-08-22T21:16:53.172Z,100532.50
2022-08-22T21:19:26.355Z,100532.59
2022-08-22T21:21:53.982Z,100540.44
2022-08-22T21:24:20.630Z,100537.13
2022-08-22T21:26:54.393Z,100438.00
2022-08-22T21:29:32.893Z,100542.28
2022-08-22T21:32:15.338Z,100534.81
2022-08-22T21:34:45.964Z,100548.53
2022-08-22T21:37:18.089Z,100533.81
2022-08-22T21:39:49.826Z,100547.69
2022-08-22T21:42:39.962Z,100492.69
2022-08-22T21:45:09.044Z,100551.28
2022-08-22T21:47:39.202Z,100545.81
2022-08-22T21:50:18.883Z,100546.13
2022-08-22T21:52:54.672Z,100543.00
2022-08-22T21:55:34.411Z,100505.66
2022-08-22T21:58:12.109Z,100547.34
2022-08-22T22:00:54.872Z,100549.84
2022-08-22T22:03:28.653Z,100554.78
2022-08-22T22:05:58.090Z,100543.78
2022-08-22T22:08:29.278Z,100540.75
2022-08-22T22:11:01.251Z,100529.84
2022-08-22T22:13:28.603Z,100549.06
2022-08-22T22:15:56.064Z,100544.38
2022-08-22T22:18:26.439Z,100563.78
2022-08-22T22:20:54.611Z,100556.22
2022-08-22T22:23:22.537Z,100549.84
2022-08-22T22:25:51.013Z,100566.53
2022-08-22T22:28:38.158Z,100568.38
2022-08-22T22:31:05.683Z,100568.88
2022-08-22T22:33:35.611Z,100518.44
2022-08-22T22:36:09.135Z,100571.38
2022-08-22T22:38:37.078Z,100573.00
2022-08-22T22:41:07.257Z,100550.09
2022-08-22T22:43:33.925Z,100567.66
2022-08-22T22:46:00.603Z,100526.22
2022-08-22T22:48:27.222Z,100572.53
2022-08-22T22:50:54.748Z,100560.72
2022-08-22T22:53:33.799Z,100567.91
2022-08-22T22:56:06.786Z,100538.53
2022-08-22T22:58:35.966Z,100528.59
2022-08-22T23:01:15.344Z,100552.25
2022-08-22T23:03:43.117Z,100559.81
2022-08-22T23:06:21.989Z,100555.19
2022-08-22T23:08:49.040Z,100571.41
2022-08-22T23:11:19.589Z,100506.66
2022-08-22T23:13:48.256Z,100559.00
2022-08-22T23:16:19.100Z,100568.09
2022-08-22T23:18:46.663Z,100579.69
2022-08-22T23:21:17.190Z,100543.13
2022-08-22T23:23:44.966Z,100537.69
2022-08-22T23:26:12.747Z,100559.81
2022-08-22T23:28:40.098Z,100559.94
2022-08-22T23:31:17.357Z,100578.84
2022-08-22T23:33:45.371Z,100553.09
2022-08-22T23:36:14.855Z,100574.94
2022-08-22T23:38:41.758Z,100521.75
2022-08-22T23:41:11.801Z,100572.06
2022-08-22T23:43:47.120Z,100580.69
2022-08-22T23:46:15.695Z,100573.03
2022-08-22T23:48:42.623Z,100574.56
2022-08-22T23:51:11.051Z,100557.22
2022-08-22T23:53:38.236Z,100579.81
2022-08-22T23:56:19.591Z,100563.69
2022-08-22T23:58:47.578Z,100579.22
